createdAt,value
2019-02-05T00:00:05.384Z,986.74
2019-02-05T00:01:05.436Z,986.69
2019-02-05T00:02:04.601Z,986.58
2019-02-05T00:03:04.769Z,986.60
2019-02-05T00:04:04.724Z,986.56
2019-02-05T00:05:05.111Z,986.61
2019-02-05T00:06:05.388Z,986.77
2019-02-05T00:07:04.549Z,986.66
2019-02-05T00:08:04.813Z,986.58
2019-02-05T00:09:05.202Z,986.74
2019-02-05T00:10:04.904Z,986.53
2019-02-05T00:11:04.892Z,986.66
2019-02-05T00:12:05.478Z,986.61
2019-02-05T00:13:04.901Z,986.48
2019-02-05T00:14:05.067Z,986.58
2019-02-05T00:15:04.495Z,986.51
2019-02-05T00:16:05.030Z,986.58
2019-02-05T00:17:04.623Z,986.40
2019-02-05T00:18:04.970Z,986.51
2019-02-05T00:19:04.686Z,986.51
2019-02-05T00:20:04.781Z,986.34
2019-02-05T00:21:05.344Z,986.56
2019-02-05T00:22:04.471Z,986.37
2019-02-05T00:23:05.448Z,986.31
2019-02-05T00:24:04.706Z,986.40
2019-02-05T00:25:05.016Z,986.43
2019-02-05T00:26:06.823Z,986.43
2019-02-05T00:27:04.541Z,986.45
2019-02-05T00:28:04.735Z,986.51
2019-02-05T00:29:09.949Z,986.45
2019-02-05T00:30:04.637Z,986.51
2019-02-05T00:31:04.643Z,986.40
2019-02-05T00:32:04.703Z,986.40
2019-02-05T00:33:04.761Z,986.34
2019-02-05T00:34:05.165Z,986.40
2019-02-05T00:35:04.568Z,986.26
2019-02-05T00:36:05.041Z,986.37
2019-02-05T00:37:04.988Z,986.43
2019-02-05T00:38:05.969Z,986.26
2019-02-05T00:39:05.111Z,986.29
2019-02-05T00:40:05.173Z,986.26
2019-02-05T00:41:05.226Z,986.15
2019-02-05T00:42:05.289Z,986.21
2019-02-05T00:43:05.469Z,986.35
2019-02-05T00:44:04.765Z,986.26
2019-02-05T00:45:05.301Z,986.26
2019-02-05T00:46:05.463Z,986.26
2019-02-05T00:47:05.457Z,986.35
2019-02-05T00:48:05.447Z,986.26
2019-02-05T00:49:09.743Z,986.26
2019-02-05T00:50:05.152Z,986.35
2019-02-05T00:51:04.770Z,986.26
2019-02-05T00:52:05.301Z,986.18
2019-02-05T00:53:04.647Z,986.21
2019-02-05T00:54:04.994Z,986.18
2019-02-05T00:55:04.606Z,986.24
2019-02-05T00:56:04.980Z,986.24
2019-02-05T00:57:04.496Z,986.24
2019-02-05T00:58:05.091Z,986.13
2019-02-05T00:59:05.327Z,986.21
2019-02-05T01:00:05.745Z,986.24
2019-02-05T01:01:05.173Z,986.27
2019-02-05T01:02:05.372Z,986.13
2019-02-05T01:03:05.585Z,986.27
2019-02-05T01:04:05.021Z,986.30
2019-02-05T01:05:05.339Z,986.46
2019-02-05T01:06:04.933Z,986.38
2019-02-05T01:07:05.073Z,986.41
2019-02-05T01:08:04.528Z,986.27
2019-02-05T01:09:04.706Z,986.21
2019-02-05T01:10:05.342Z,986.27
2019-02-05T01:11:05.442Z,986.24
2019-02-05T01:12:05.547Z,986.21
2019-02-05T01:13:04.506Z,986.05
2019-02-05T01:14:05.328Z,986.13
2019-02-05T01:15:04.909Z,986.11
2019-02-05T01:16:04.823Z,986.11
2019-02-05T01:17:04.975Z,985.97
2019-02-05T01:18:05.425Z,985.91
2019-02-05T01:19:05.415Z,986.11
2019-02-05T01:20:05.425Z,986.19
2019-02-05T01:21:04.577Z,986.08
2019-02-05T01:22:05.052Z,985.94
2019-02-05T01:23:05.433Z,986.11
2019-02-05T01:24:04.605Z,985.94
2019-02-05T01:25:04.871Z,986.11
2019-02-05T01:26:04.867Z,986.00
2019-02-05T01:27:05.033Z,986.11
2019-02-05T01:28:05.644Z,986.14
2019-02-05T01:29:10.521Z,986.00
2019-02-05T01:30:04.989Z,986.05
2019-02-05T01:31:05.571Z,986.19
2019-02-05T01:32:04.638Z,986.05
2019-02-05T01:33:04.774Z,986.17
2019-02-05T01:34:04.760Z,986.19
2019-02-05T01:35:05.028Z,986.19
2019-02-05T01:36:05.365Z,986.28
2019-02-05T01:37:04.578Z,986.25
2019-02-05T01:38:05.182Z,986.08
2019-02-05T01:39:05.840Z,986.14
2019-02-05T01:40:05.206Z,986.11
2019-02-05T01:41:05.426Z,986.20
2019-02-05T01:42:04.519Z,986.11
2019-02-05T01:43:04.538Z,986.20
2019-02-05T01:44:04.756Z,986.17
2019-02-05T01:45:05.721Z,986.14
2019-02-05T01:46:05.090Z,986.22
2019-02-05T01:47:05.495Z,985.95
2019-02-05T01:48:04.851Z,986.11
2019-02-05T01:49:09.963Z,986.09
2019-02-05T01:50:05.349Z,986.11
2019-02-05T01:51:04.930Z,986.03
2019-02-05T01:52:05.134Z,986.11
2019-02-05T01:53:05.191Z,986.08
2019-02-05T01:54:05.065Z,986.03
2019-02-05T01:55:05.128Z,986.06
2019-02-05T01:56:05.192Z,985.86
2019-02-05T01:57:05.206Z,985.78
2019-02-05T01:58:04.693Z,985.86
2019-02-05T01:59:04.751Z,985.86
2019-02-05T02:00:04.708Z,985.81
2019-02-05T02:01:04.920Z,985.75
2019-02-05T02:02:05.599Z,985.64
2019-02-05T02:03:05.037Z,985.67
2019-02-05T02:04:05.050Z,985.75
2019-02-05T02:05:04.750Z,985.72
2019-02-05T02:06:04.690Z,985.58
2019-02-05T02:07:04.637Z,985.67
2019-02-05T02:08:04.875Z,985.58
2019-02-05T02:09:05.202Z,985.58
2019-02-05T02:10:04.790Z,985.72
2019-02-05T02:11:04.718Z,985.58
2019-02-05T02:12:04.702Z,985.64
2019-02-05T02:13:04.756Z,985.64
2019-02-05T02:14:05.216Z,985.56
2019-02-05T02:15:04.651Z,985.70
2019-02-05T02:16:05.219Z,985.61
2019-02-05T02:17:05.464Z,985.56
2019-02-05T02:18:05.361Z,985.61
2019-02-05T02:19:05.431Z,985.58
2019-02-05T02:20:04.520Z,985.56
2019-02-05T02:21:04.773Z,985.53
2019-02-05T02:22:04.778Z,985.75
2019-02-05T02:23:04.954Z,985.80
2019-02-05T02:24:04.982Z,985.72
2019-02-05T02:25:05.804Z,985.72
2019-02-05T02:26:04.982Z,985.64
2019-02-05T02:27:05.029Z,985.53
2019-02-05T02:28:04.600Z,985.72
2019-02-05T02:29:04.756Z,985.69
2019-02-05T02:30:04.889Z,985.64
2019-02-05T02:31:04.851Z,985.72
2019-02-05T02:32:05.443Z,985.64
2019-02-05T02:33:05.993Z,985.67
2019-02-05T02:34:05.094Z,985.75
2019-02-05T02:35:04.766Z,985.64
2019-02-05T02:36:05.197Z,985.58
2019-02-05T02:37:05.257Z,985.58
2019-02-05T02:38:05.301Z,985.70
2019-02-05T02:39:05.325Z,985.64
2019-02-05T02:40:05.313Z,985.64
2019-02-05T02:41:05.400Z,985.64
2019-02-05T02:42:04.487Z,985.58
2019-02-05T02:43:04.602Z,985.56
2019-02-05T02:44:04.704Z,985.75
2019-02-05T02:45:09.641Z,985.67
2019-02-05T02:46:05.028Z,985.67
2019-02-05T02:47:05.098Z,985.56
2019-02-05T02:48:04.902Z,985.67
2019-02-05T02:49:05.077Z,985.59
2019-02-05T02:50:05.371Z,985.48
2019-02-05T02:51:04.501Z,985.56
2019-02-05T02:52:04.965Z,985.48
2019-02-05T02:53:05.022Z,985.40
2019-02-05T02:54:05.180Z,985.59
2019-02-05T02:55:05.260Z,985.53
2019-02-05T02:56:05.234Z,985.56
2019-02-05T02:57:05.556Z,985.59
2019-02-05T02:58:04.622Z,985.56
2019-02-05T02:59:05.060Z,985.70
2019-02-05T03:00:04.896Z,985.59
2019-02-05T03:01:05.100Z,985.65
2019-02-05T03:02:06.085Z,985.40
2019-02-05T03:03:04.777Z,985.62
2019-02-05T03:04:05.346Z,985.48
2019-02-05T03:05:04.550Z,985.48
2019-02-05T03:06:05.205Z,985.48
2019-02-05T03:07:05.536Z,985.43
2019-02-05T03:08:04.587Z,985.62
2019-02-05T03:09:04.742Z,985.54
2019-02-05T03:10:04.915Z,985.48
2019-02-05T03:11:05.317Z,985.48
2019-02-05T03:12:04.799Z,985.51
2019-02-05T03:13:05.158Z,985.45
2019-02-05T03:14:05.214Z,985.40
2019-02-05T03:15:05.292Z,985.48
2019-02-05T03:16:04.776Z,985.43
2019-02-05T03:17:04.930Z,985.43
2019-02-05T03:18:05.812Z,985.48
2019-02-05T03:19:05.273Z,985.43
2019-02-05T03:20:05.224Z,985.40
2019-02-05T03:21:04.693Z,985.48
2019-02-05T03:22:05.096Z,985.68
2019-02-05T03:23:05.314Z,985.73
2019-02-05T03:24:05.483Z,985.70
2019-02-05T03:25:05.067Z,985.70
2019-02-05T03:26:05.533Z,985.76
2019-02-05T03:27:18.352Z,985.79
2019-02-05T03:28:05.218Z,985.79
2019-02-05T03:29:10.413Z,985.82
2019-02-05T03:30:05.004Z,985.68
2019-02-05T03:31:04.923Z,985.59
2019-02-05T03:32:06.284Z,985.62
2019-02-05T03:33:05.374Z,985.65
2019-02-05T03:34:05.522Z,985.73
2019-02-05T03:35:06.243Z,985.62
2019-02-05T03:36:04.861Z,985.57
2019-02-05T03:37:04.988Z,985.51
2019-02-05T03:38:04.941Z,985.70
2019-02-05T03:39:05.022Z,985.62
2019-02-05T03:40:05.163Z,985.68
2019-02-05T03:41:04.943Z,985.45
2019-02-05T03:42:05.786Z,985.45
2019-02-05T03:43:04.521Z,985.45
2019-02-05T03:44:05.133Z,985.37
2019-02-05T03:45:05.067Z,985.45
2019-02-05T03:46:05.406Z,985.54
2019-02-05T03:47:05.776Z,985.37
2019-02-05T03:48:05.085Z,985.56
2019-02-05T03:49:10.110Z,985.42
2019-02-05T03:50:04.525Z,985.42
2019-02-05T03:51:05.089Z,985.18
2019-02-05T03:52:04.728Z,985.24
2019-02-05T03:53:04.684Z,985.24
2019-02-05T03:54:05.199Z,985.21
2019-02-05T03:55:05.361Z,985.37
2019-02-05T03:56:05.280Z,985.42
2019-02-05T03:57:04.717Z,985.56
2019-02-05T03:58:04.775Z,985.37
2019-02-05T03:59:05.480Z,985.50
2019-02-05T04:00:04.808Z,985.45
2019-02-05T04:01:05.000Z,985.39
2019-02-05T04:02:05.319Z,985.56
2019-02-05T04:03:04.713Z,985.64
2019-02-05T04:04:04.843Z,985.56
2019-02-05T04:05:04.805Z,985.56
2019-02-05T04:06:05.395Z,985.53
2019-02-05T04:07:04.935Z,985.67
2019-02-05T04:08:04.589Z,985.75
2019-02-05T04:09:05.350Z,985.67
2019-02-05T04:10:05.654Z,985.83
2019-02-05T04:11:05.325Z,985.80
2019-02-05T04:12:04.836Z,985.78
2019-02-05T04:13:04.804Z,985.61
2019-02-05T04:14:05.043Z,985.55
2019-02-05T04:15:05.492Z,985.66
2019-02-05T04:16:04.911Z,985.61
2019-02-05T04:17:05.155Z,985.61
2019-02-05T04:18:04.715Z,985.69
2019-02-05T04:19:04.734Z,985.64
2019-02-05T04:20:04.782Z,985.66
2019-02-05T04:21:05.695Z,985.72
2019-02-05T04:22:04.534Z,985.75
2019-02-05T04:23:04.738Z,985.75
2019-02-05T04:24:05.262Z,985.77
2019-02-05T04:25:05.268Z,985.69
2019-02-05T04:26:04.539Z,985.69
2019-02-05T04:27:04.849Z,985.69
2019-02-05T04:28:04.569Z,985.63
2019-02-05T04:29:10.102Z,985.63
2019-02-05T04:30:04.523Z,985.47
2019-02-05T04:31:04.679Z,985.58
2019-02-05T04:32:04.839Z,985.69
2019-02-05T04:33:05.784Z,985.66
2019-02-05T04:34:05.095Z,985.72
2019-02-05T04:35:05.493Z,985.66
2019-02-05T04:36:04.670Z,985.83
2019-02-05T04:37:04.998Z,985.74
2019-02-05T04:38:04.970Z,985.77
2019-02-05T04:39:04.959Z,985.71
2019-02-05T04:40:05.382Z,985.71
2019-02-05T04:41:05.545Z,985.69
2019-02-05T04:42:04.819Z,985.69
2019-02-05T04:43:05.237Z,985.88
2019-02-05T04:44:05.317Z,985.71
2019-02-05T04:45:05.302Z,985.71
2019-02-05T04:46:04.646Z,985.80
2019-02-05T04:47:04.757Z,985.80
2019-02-05T04:48:05.133Z,985.74
2019-02-05T04:49:10.656Z,985.79
2019-02-05T04:50:04.494Z,985.85
2019-02-05T04:51:04.990Z,986.07
2019-02-05T04:52:04.955Z,985.82
2019-02-05T04:53:05.401Z,985.74
2019-02-05T04:54:04.919Z,985.91
2019-02-05T04:55:04.954Z,985.79
2019-02-05T04:56:05.691Z,985.82
2019-02-05T04:57:05.142Z,985.77
2019-02-05T04:58:05.607Z,985.79
2019-02-05T04:59:04.917Z,985.77
2019-02-05T05:00:04.917Z,985.74
2019-02-05T05:01:05.309Z,985.71
2019-02-05T05:02:05.405Z,985.93
2019-02-05T05:03:04.800Z,985.68
2019-02-05T05:04:05.090Z,985.74
2019-02-05T05:05:05.359Z,985.79
2019-02-05T05:06:04.934Z,985.87
2019-02-05T05:07:05.071Z,985.76
2019-02-05T05:08:05.209Z,985.79
2019-02-05T05:09:05.206Z,985.68
2019-02-05T05:10:04.673Z,985.82
2019-02-05T05:11:05.160Z,985.65
2019-02-05T05:12:04.882Z,985.62
2019-02-05T05:13:04.956Z,985.79
2019-02-05T05:14:05.321Z,985.90
2019-02-05T05:15:04.995Z,985.79
2019-02-05T05:16:04.664Z,985.87
2019-02-05T05:17:04.811Z,985.90
2019-02-05T05:18:05.248Z,985.79
2019-02-05T05:19:05.432Z,985.79
2019-02-05T05:20:05.325Z,986.01
2019-02-05T05:21:04.665Z,985.98
2019-02-05T05:22:04.615Z,985.92
2019-02-05T05:23:05.435Z,985.90
2019-02-05T05:24:05.388Z,985.79
2019-02-05T05:25:05.892Z,985.87
2019-02-05T05:26:05.814Z,985.87
2019-02-05T05:27:05.417Z,985.89
2019-02-05T05:28:10.773Z,985.89
2019-02-05T05:29:05.380Z,985.76
2019-02-05T05:30:04.727Z,985.98
2019-02-05T05:31:05.984Z,986.01
2019-02-05T05:32:05.405Z,985.92
2019-02-05T05:33:05.539Z,985.92
2019-02-05T05:34:04.954Z,986.03
2019-02-05T05:35:04.929Z,985.92
2019-02-05T05:36:10.186Z,985.95
2019-02-05T05:37:05.651Z,986.00
2019-02-05T05:38:04.597Z,986.06
2019-02-05T05:39:04.690Z,985.92
2019-02-05T05:40:05.202Z,985.98
2019-02-05T05:41:05.283Z,985.92
2019-02-05T05:42:04.853Z,986.00
2019-02-05T05:43:04.925Z,985.81
2019-02-05T05:44:04.787Z,985.95
2019-02-05T05:45:04.483Z,986.09
2019-02-05T05:46:05.173Z,986.09
2019-02-05T05:47:05.529Z,985.84
2019-02-05T05:48:05.238Z,985.84
2019-02-05T05:49:05.416Z,985.95
2019-02-05T05:50:05.643Z,985.84
2019-02-05T05:51:04.991Z,985.89
2019-02-05T05:52:05.366Z,985.81
2019-02-05T05:53:05.240Z,985.92
2019-02-05T05:54:05.420Z,986.01
2019-02-05T05:55:05.522Z,985.90
2019-02-05T05:56:05.187Z,985.84
2019-02-05T05:57:05.302Z,986.03
2019-02-05T05:58:05.305Z,985.92
2019-02-05T05:59:05.238Z,985.90
2019-02-05T06:00:04.805Z,985.84
2019-02-05T06:01:05.358Z,985.87
2019-02-05T06:02:04.599Z,985.95
2019-02-05T06:03:04.991Z,986.04
2019-02-05T06:04:05.452Z,986.01
2019-02-05T06:05:05.410Z,986.04
2019-02-05T06:06:05.133Z,985.81
2019-02-05T06:07:05.376Z,985.90
2019-02-05T06:08:05.335Z,985.87
2019-02-05T06:09:04.973Z,985.95
2019-02-05T06:10:07.653Z,986.06
2019-02-05T06:11:05.305Z,985.90
2019-02-05T06:12:05.969Z,985.82
2019-02-05T06:13:05.192Z,985.98
2019-02-05T06:14:05.218Z,985.76
2019-02-05T06:15:05.398Z,985.87
2019-02-05T06:16:05.399Z,985.98
2019-02-05T06:17:05.068Z,985.93
2019-02-05T06:18:05.521Z,986.09
2019-02-05T06:19:05.303Z,985.98
2019-02-05T06:20:05.305Z,986.09
2019-02-05T06:21:05.207Z,986.15
2019-02-05T06:22:05.235Z,985.98
2019-02-05T06:23:04.522Z,985.98
2019-02-05T06:24:05.141Z,985.96
2019-02-05T06:25:05.428Z,986.15
2019-02-05T06:26:05.420Z,986.15
2019-02-05T06:27:04.649Z,986.04
2019-02-05T06:28:05.092Z,986.09
2019-02-05T06:29:05.147Z,986.15
2019-02-05T06:30:05.189Z,986.01
2019-02-05T06:31:05.227Z,986.26
2019-02-05T06:32:05.183Z,986.12
2019-02-05T06:33:05.975Z,986.04
2019-02-05T06:34:05.126Z,986.12
2019-02-05T06:35:05.313Z,986.06
2019-02-05T06:36:05.887Z,986.18
2019-02-05T06:37:04.560Z,986.15
2019-02-05T06:38:04.713Z,986.04
2019-02-05T06:39:04.902Z,986.09
2019-02-05T06:40:05.156Z,986.26
2019-02-05T06:41:05.184Z,986.18
2019-02-05T06:42:05.127Z,986.31
2019-02-05T06:43:05.346Z,986.01
2019-02-05T06:44:09.835Z,986.12
2019-02-05T06:45:05.437Z,986.18
2019-02-05T06:46:05.564Z,985.98
2019-02-05T06:47:04.527Z,986.15
2019-02-05T06:48:05.022Z,986.20
2019-02-05T06:49:05.440Z,986.15
2019-02-05T06:50:05.331Z,986.07
2019-02-05T06:51:04.711Z,986.26
2019-02-05T06:52:04.826Z,986.07
2019-02-05T06:53:05.491Z,986.15
2019-02-05T06:54:04.832Z,986.26
2019-02-05T06:55:05.762Z,986.23
2019-02-05T06:56:04.481Z,986.32
2019-02-05T06:57:04.787Z,986.23
2019-02-05T06:58:05.149Z,986.23
2019-02-05T06:59:05.370Z,986.20
2019-02-05T07:00:05.312Z,986.34
2019-02-05T07:01:05.440Z,986.29
2019-02-05T07:02:04.679Z,986.29
2019-02-05T07:03:05.190Z,986.20
2019-02-05T07:04:05.444Z,986.34
2019-02-05T07:05:05.626Z,986.20
2019-02-05T07:06:05.093Z,986.28
2019-02-05T07:07:05.222Z,986.17
2019-02-05T07:08:04.779Z,986.17
2019-02-05T07:09:04.831Z,986.20
2019-02-05T07:10:05.207Z,986.28
2019-02-05T07:11:04.838Z,986.45
2019-02-05T07:12:05.248Z,986.28
2019-02-05T07:13:05.229Z,986.17
2019-02-05T07:14:05.268Z,986.23
2019-02-05T07:15:04.577Z,986.22
2019-02-05T07:16:04.990Z,986.28
2019-02-05T07:17:05.546Z,986.14
2019-02-05T07:18:07.803Z,986.25
2019-02-05T07:19:04.737Z,986.22
2019-02-05T07:20:04.858Z,986.20
2019-02-05T07:21:05.054Z,986.25
2019-02-05T07:22:05.307Z,986.17
2019-02-05T07:23:05.401Z,986.22
2019-02-05T07:24:04.585Z,986.22
2019-02-05T07:25:04.922Z,986.42
2019-02-05T07:26:04.842Z,986.42
2019-02-05T07:27:05.393Z,986.33
2019-02-05T07:28:05.743Z,986.39
2019-02-05T07:29:09.601Z,986.39
2019-02-05T07:30:05.032Z,986.33
2019-02-05T07:31:05.295Z,986.50
2019-02-05T07:32:05.770Z,986.39
2019-02-05T07:33:04.777Z,986.50
2019-02-05T07:34:04.799Z,986.39
2019-02-05T07:35:04.899Z,986.28
2019-02-05T07:36:05.536Z,986.42
2019-02-05T07:37:04.546Z,986.50
2019-02-05T07:38:05.066Z,986.63
2019-02-05T07:39:05.181Z,986.47
2019-02-05T07:40:05.382Z,986.33
2019-02-05T07:41:04.825Z,986.33
2019-02-05T07:42:04.974Z,986.39
2019-02-05T07:43:05.249Z,986.33
2019-02-05T07:44:05.476Z,986.41
2019-02-05T07:45:04.539Z,986.47
2019-02-05T07:46:04.625Z,986.57
2019-02-05T07:47:04.787Z,986.47
2019-02-05T07:48:05.239Z,986.44
2019-02-05T07:49:04.567Z,986.44
2019-02-05T07:50:04.785Z,986.52
2019-02-05T07:51:05.202Z,986.59
2019-02-05T07:52:04.576Z,986.57
2019-02-05T07:53:04.599Z,986.49
2019-02-05T07:54:05.086Z,986.49
2019-02-05T07:55:04.559Z,986.68
2019-02-05T07:56:04.898Z,986.56
2019-02-05T07:57:05.072Z,986.70
2019-02-05T07:58:05.056Z,986.46
2019-02-05T07:59:10.851Z,986.67
2019-02-05T08:00:05.575Z,986.81
2019-02-05T08:01:05.014Z,986.81
2019-02-05T08:02:05.440Z,986.64
2019-02-05T08:03:05.073Z,986.59
2019-02-05T08:04:05.203Z,986.73
2019-02-05T08:05:05.453Z,986.51
2019-02-05T08:06:05.264Z,986.67
2019-02-05T08:07:08.076Z,986.73
2019-02-05T08:08:04.994Z,986.59
2019-02-05T08:09:05.397Z,986.61
2019-02-05T08:10:04.553Z,986.70
2019-02-05T08:11:04.781Z,986.81
2019-02-05T08:12:05.041Z,986.70
2019-02-05T08:13:05.171Z,986.78
2019-02-05T08:14:06.671Z,986.69
2019-02-05T08:15:05.698Z,986.67
2019-02-05T08:16:04.761Z,986.69
2019-02-05T08:17:05.592Z,986.83
2019-02-05T08:18:04.952Z,986.83
2019-02-05T08:19:05.142Z,986.83
2019-02-05T08:20:04.609Z,986.80
2019-02-05T08:21:04.842Z,986.77
2019-02-05T08:22:05.254Z,986.88
2019-02-05T08:23:05.637Z,986.66
2019-02-05T08:24:04.959Z,986.72
2019-02-05T08:25:05.198Z,986.91
2019-02-05T08:26:05.224Z,986.69
2019-02-05T08:27:04.615Z,986.74
2019-02-05T08:28:04.788Z,986.63
2019-02-05T08:29:21.967Z,986.86
2019-02-05T08:30:05.442Z,986.83
2019-02-05T08:31:05.361Z,986.83
2019-02-05T08:32:04.530Z,986.80
2019-02-05T08:33:04.782Z,986.85
2019-02-05T08:34:04.855Z,986.77
2019-02-05T08:35:05.554Z,986.68
2019-02-05T08:36:04.605Z,986.68
2019-02-05T08:37:05.494Z,986.79
2019-02-05T08:38:04.905Z,986.79
2019-02-05T08:39:05.377Z,986.63
2019-02-05T08:40:04.593Z,986.73
2019-02-05T08:41:05.037Z,986.76
2019-02-05T08:42:05.370Z,986.79
2019-02-05T08:43:04.710Z,986.68
2019-02-05T08:44:05.137Z,986.70
2019-02-05T08:45:05.661Z,986.73
2019-02-05T08:46:04.816Z,986.70
2019-02-05T08:47:04.850Z,986.84
2019-02-05T08:48:05.013Z,986.79
2019-02-05T08:49:10.129Z,986.76
2019-02-05T08:50:04.714Z,986.90
2019-02-05T08:51:04.969Z,986.90
2019-02-05T08:52:05.097Z,986.73
2019-02-05T08:53:05.368Z,986.87
2019-02-05T08:54:05.571Z,986.98
2019-02-05T08:55:04.559Z,986.87
2019-02-05T08:56:05.226Z,986.89
2019-02-05T08:57:04.821Z,986.98
2019-02-05T08:58:05.010Z,986.95
2019-02-05T08:59:05.787Z,986.95
2019-02-05T09:00:04.930Z,986.86
2019-02-05T09:01:05.398Z,987.17
2019-02-05T09:02:04.690Z,986.97
2019-02-05T09:03:05.016Z,987.03
2019-02-05T09:04:05.557Z,987.00
2019-02-05T09:05:04.788Z,987.11
2019-02-05T09:06:05.608Z,986.97
2019-02-05T09:07:04.950Z,987.13
2019-02-05T09:08:05.493Z,987.02
2019-02-05T09:09:05.533Z,986.94
2019-02-05T09:10:04.926Z,987.02
2019-02-05T09:11:05.171Z,987.02
2019-02-05T09:12:05.450Z,987.05
2019-02-05T09:13:05.779Z,987.07
2019-02-05T09:14:13.513Z,987.07
2019-02-05T09:15:05.431Z,986.96
2019-02-05T09:16:04.578Z,987.04
2019-02-05T09:17:05.270Z,987.07
2019-02-05T09:18:05.398Z,986.87
2019-02-05T09:19:04.631Z,987.10
2019-02-05T09:20:04.814Z,987.04
2019-02-05T09:21:05.913Z,987.01
2019-02-05T09:22:05.355Z,987.15
2019-02-05T09:23:05.408Z,987.09
2019-02-05T09:24:05.224Z,987.15
2019-02-05T09:25:05.239Z,986.93
2019-02-05T09:26:04.821Z,986.90
2019-02-05T09:27:04.931Z,986.98
2019-02-05T09:28:05.461Z,986.98
2019-02-05T09:29:09.635Z,986.92
2019-02-05T09:30:05.290Z,986.98
2019-02-05T09:31:04.609Z,986.89
2019-02-05T09:32:04.720Z,987.12
2019-02-05T09:33:04.894Z,987.09
2019-02-05T09:34:05.336Z,987.03
2019-02-05T09:35:05.403Z,987.03
2019-02-05T09:36:04.554Z,987.09
2019-02-05T09:37:04.679Z,986.89
2019-02-05T09:38:04.799Z,987.03
2019-02-05T09:39:04.985Z,987.00
2019-02-05T09:40:05.998Z,987.06
2019-02-05T09:41:05.122Z,987.14
2019-02-05T09:42:05.216Z,987.08
2019-02-05T09:43:05.681Z,986.91
2019-02-05T09:44:05.087Z,987.02
2019-02-05T09:45:05.351Z,987.14
2019-02-05T09:46:05.605Z,986.97
2019-02-05T09:47:04.741Z,987.11
2019-02-05T09:48:06.474Z,987.08
2019-02-05T09:49:05.176Z,987.02
2019-02-05T09:50:05.442Z,987.11
2019-02-05T09:51:04.980Z,987.24
2019-02-05T09:52:09.970Z,987.10
2019-02-05T09:53:05.453Z,986.99
2019-02-05T09:54:04.687Z,987.13
2019-02-05T09:55:05.113Z,987.13
2019-02-05T09:56:04.517Z,987.24
2019-02-05T09:57:04.796Z,987.10
2019-02-05T09:58:05.241Z,987.10
2019-02-05T09:59:04.945Z,987.13
2019-02-05T10:00:05.135Z,987.32
2019-02-05T10:01:05.347Z,987.24
2019-02-05T10:02:05.378Z,987.21
2019-02-05T10:03:05.181Z,987.18
2019-02-05T10:04:04.608Z,987.21
2019-02-05T10:05:05.135Z,987.21
2019-02-05T10:06:04.684Z,987.04
2019-02-05T10:07:05.250Z,987.04
2019-02-05T10:08:04.629Z,987.15
2019-02-05T10:09:04.709Z,987.09
2019-02-05T10:10:05.086Z,987.23
2019-02-05T10:11:05.133Z,987.15
2019-02-05T10:12:05.511Z,987.01
2019-02-05T10:13:04.943Z,987.15
2019-02-05T10:14:05.246Z,986.95
2019-02-05T10:15:05.448Z,987.23
2019-02-05T10:16:05.469Z,987.17
2019-02-05T10:17:04.728Z,987.12
2019-02-05T10:18:04.996Z,987.15
2019-02-05T10:19:05.507Z,987.12
2019-02-05T10:20:04.778Z,987.20
2019-02-05T10:21:04.913Z,987.28
2019-02-05T10:22:04.977Z,987.09
2019-02-05T10:23:05.049Z,987.20
2019-02-05T10:24:04.735Z,987.12
2019-02-05T10:25:05.416Z,987.26
2019-02-05T10:26:05.476Z,987.20
2019-02-05T10:27:04.827Z,987.20
2019-02-05T10:28:04.899Z,987.11
2019-02-05T10:29:10.177Z,987.28
2019-02-05T10:30:04.689Z,987.08
2019-02-05T10:31:04.805Z,987.00
2019-02-05T10:32:04.942Z,987.11
2019-02-05T10:33:05.194Z,987.11
2019-02-05T10:34:05.336Z,987.28
2019-02-05T10:35:04.782Z,987.11
2019-02-05T10:36:04.893Z,987.08
2019-02-05T10:37:04.988Z,987.22
2019-02-05T10:38:05.293Z,987.14
2019-02-05T10:39:04.916Z,987.14
2019-02-05T10:40:05.356Z,987.25
2019-02-05T10:41:05.318Z,987.11
2019-02-05T10:42:05.692Z,987.16
2019-02-05T10:43:05.283Z,987.30
2019-02-05T10:44:05.502Z,987.16
2019-02-05T10:45:05.118Z,987.10
2019-02-05T10:46:05.130Z,987.19
2019-02-05T10:47:04.625Z,987.24
2019-02-05T10:48:04.849Z,987.19
2019-02-05T10:49:05.133Z,987.13
2019-02-05T10:50:05.379Z,987.35
2019-02-05T10:51:05.424Z,987.33
2019-02-05T10:52:04.627Z,987.27
2019-02-05T10:53:05.152Z,987.07
2019-02-05T10:54:04.605Z,987.24
2019-02-05T10:55:05.009Z,987.24
2019-02-05T10:56:05.266Z,987.32
2019-02-05T10:57:04.556Z,987.27
2019-02-05T10:58:04.838Z,987.13
2019-02-05T10:59:05.460Z,987.27
2019-02-05T11:00:09.853Z,987.21
2019-02-05T11:01:05.549Z,987.27
2019-02-05T11:02:04.667Z,987.27
2019-02-05T11:03:04.904Z,987.27
2019-02-05T11:04:05.670Z,987.35
2019-02-05T11:05:05.161Z,987.38
2019-02-05T11:06:04.622Z,987.21
2019-02-05T11:07:05.335Z,987.29
2019-02-05T11:08:05.400Z,987.29
2019-02-05T11:09:04.648Z,987.29
2019-02-05T11:10:05.191Z,987.32
2019-02-05T11:11:05.391Z,987.38
2019-02-05T11:12:04.940Z,987.38
2019-02-05T11:13:05.084Z,987.29
2019-02-05T11:14:05.301Z,987.35
2019-02-05T11:15:05.388Z,987.32
2019-02-05T11:16:05.469Z,987.40
2019-02-05T11:17:05.080Z,987.40
2019-02-05T11:18:04.793Z,987.23
2019-02-05T11:19:04.893Z,987.29
2019-02-05T11:20:05.133Z,987.26
2019-02-05T11:21:05.505Z,987.32
2019-02-05T11:22:04.678Z,987.37
2019-02-05T11:23:04.789Z,987.43
2019-02-05T11:24:05.540Z,987.37
2019-02-05T11:25:04.824Z,987.40
2019-02-05T11:26:05.248Z,987.40
2019-02-05T11:27:05.324Z,987.40
2019-02-05T11:28:04.577Z,987.46
2019-02-05T11:29:10.341Z,987.37
2019-02-05T11:30:04.763Z,987.40
2019-02-05T11:31:05.446Z,987.45
2019-02-05T11:32:04.813Z,987.34
2019-02-05T11:33:05.427Z,987.34
2019-02-05T11:34:04.670Z,987.48
2019-02-05T11:35:04.881Z,987.37
2019-02-05T11:36:05.193Z,987.48
2019-02-05T11:37:04.987Z,987.43
2019-02-05T11:38:05.051Z,987.31
2019-02-05T11:39:04.762Z,987.37
2019-02-05T11:40:04.898Z,987.26
2019-02-05T11:41:05.417Z,987.43
2019-02-05T11:42:04.776Z,987.51
2019-02-05T11:43:04.972Z,987.34
2019-02-05T11:44:04.630Z,987.45
2019-02-05T11:45:04.832Z,987.31
2019-02-05T11:46:04.944Z,987.51
2019-02-05T11:47:05.002Z,987.39
2019-02-05T11:48:05.553Z,987.31
2019-02-05T11:49:05.001Z,987.39
2019-02-05T11:50:05.093Z,987.45
2019-02-05T11:51:05.238Z,987.31
2019-02-05T11:52:05.206Z,987.37
2019-02-05T11:53:04.852Z,987.31
2019-02-05T11:54:04.953Z,987.34
2019-02-05T11:55:05.827Z,987.42
2019-02-05T11:56:05.231Z,987.45
2019-02-05T11:57:05.241Z,987.42
2019-02-05T11:58:04.760Z,987.50
2019-02-05T11:59:05.364Z,987.25
2019-02-05T12:00:04.998Z,987.36
2019-02-05T12:01:04.968Z,987.42
2019-02-05T12:02:05.379Z,987.36
2019-02-05T12:03:05.932Z,987.44
2019-02-05T12:04:05.312Z,987.39
2019-02-05T12:05:04.813Z,987.50
2019-02-05T12:06:04.864Z,987.50
2019-02-05T12:07:04.926Z,987.36
2019-02-05T12:08:05.315Z,987.36
2019-02-05T12:09:04.876Z,987.41
2019-02-05T12:10:05.633Z,987.47
2019-02-05T12:11:05.092Z,987.36
2019-02-05T12:12:05.325Z,987.38
2019-02-05T12:13:05.135Z,987.36
2019-02-05T12:14:04.877Z,987.38
2019-02-05T12:15:05.343Z,987.44
2019-02-05T12:16:05.517Z,987.36
2019-02-05T12:17:05.013Z,987.38
2019-02-05T12:18:05.416Z,987.52
2019-02-05T12:19:04.914Z,987.41
2019-02-05T12:20:05.042Z,987.36
2019-02-05T12:21:05.071Z,987.41
2019-02-05T12:22:04.754Z,987.47
2019-02-05T12:23:05.056Z,987.35
2019-02-05T12:24:05.708Z,987.47
2019-02-05T12:25:04.834Z,987.35
2019-02-05T12:26:04.857Z,987.38
2019-02-05T12:27:04.954Z,987.41
2019-02-05T12:28:04.611Z,987.38